sensor_id;sensor_type;location;lat;lon;timestamp;pressure;altitude;pressure_sealevel;temperature;humidity
60646;BME280;46462;32.608;-117.032;2023-01-31T00:00:25;99220.02;;;18.12;55.76
60646;BME280;46462;32.608;-117.032;2023-01-31T00:02:56;99216.87;;;20.50;49.76
60646;BME280;46462;32.608;-117.032;2023-01-31T00:05:26;99214.66;;;21.76;46.19
60646;BME280;46462;32.608;-117.032;2023-01-31T00:07:57;99214.52;;;20.82;48.24
60646;BME280;46462;32.608;-117.032;2023-01-31T00:10:28;99216.64;;;19.61;50.92
60646;BME280;46462;32.608;-117.032;2023-01-31T00:13:03;99218.78;;;18.61;53.71
60646;BME280;46462;32.608;-117.032;2023-01-31T00:15:29;99216.11;;;18.44;54.92
60646;BME280;46462;32.608;-117.032;2023-01-31T00:18:00;99215.21;;;20.83;48.83
60646;BME280;46462;32.608;-117.032;2023-01-31T00:20:30;99218.76;;;21.40;46.64
60646;BME280;46462;32.608;-117.032;2023-01-31T00:23:01;99216.73;;;20.33;48.88
60646;BME280;46462;32.608;-117.032;2023-01-31T00:25:32;99216.73;;;19.21;51.73
60646;BME280;46462;32.608;-117.032;2023-01-31T00:28:03;99215.30;;;18.30;54.20
60646;BME280;46462;32.608;-117.032;2023-01-31T00:30:33;99201.04;;;19.12;52.69
60646;BME280;46462;32.608;-117.032;2023-01-31T00:33:04;99185.52;;;20.95;48.19
60646;BME280;46462;32.608;-117.032;2023-01-31T00:35:38;99183.60;;;22.13;45.11
60646;BME280;46462;32.608;-117.032;2023-01-31T00:38:05;99184.68;;;23.09;42.76
60646;BME280;46462;32.608;-117.032;2023-01-31T00:40:36;99180.08;;;23.73;41.19
60646;BME280;46462;32.608;-117.032;2023-01-31T00:43:07;99178.62;;;24.03;40.50
60646;BME280;46462;32.608;-117.032;2023-01-31T00:45:37;99177.71;;;24.14;40.27
60646;BME280;46462;32.608;-117.032;2023-01-31T00:48:08;99176.23;;;24.14;40.37
60646;BME280;46462;32.608;-117.032;2023-01-31T00:50:39;99179.07;;;24.15;40.24
60646;BME280;46462;32.608;-117.032;2023-01-31T00:53:09;99175.97;;;24.10;40.22
60646;BME280;46462;32.608;-117.032;2023-01-31T00:55:40;99173.13;;;24.07;40.23
60646;BME280;46462;32.608;-117.032;2023-01-31T00:58:11;99173.31;;;24.04;40.19
60646;BME280;46462;32.608;-117.032;2023-01-31T01:00:42;99171.76;;;23.99;40.27
60646;BME280;46462;32.608;-117.032;2023-01-31T01:03:12;99169.06;;;23.95;40.33
60646;BME280;46462;32.608;-117.032;2023-01-31T01:05:43;99170.65;;;23.90;40.40
60646;BME280;46462;32.608;-117.032;2023-01-31T01:08:14;99172.81;;;23.89;40.33
60646;BME280;46462;32.608;-117.032;2023-01-31T01:10:44;99174.34;;;23.82;40.44
60646;BME280;46462;32.608;-117.032;2023-01-31T01:13:15;99180.39;;;23.78;40.45
60646;BME280;46462;32.608;-117.032;2023-01-31T01:15:46;99178.63;;;23.75;40.50
60646;BME280;46462;32.608;-117.032;2023-01-31T01:18:17;99176.25;;;23.78;40.41
60646;BME280;46462;32.608;-117.032;2023-01-31T01:20:47;99179.17;;;23.76;40.41
60646;BME280;46462;32.608;-117.032;2023-01-31T01:23:18;99178.25;;;23.78;40.36
60646;BME280;46462;32.608;-117.032;2023-01-31T01:25:49;99178.31;;;23.78;40.42
60646;BME280;46462;32.608;-117.032;2023-01-31T01:28:19;99181.68;;;23.75;40.48
60646;BME280;46462;32.608;-117.032;2023-01-31T01:30:50;99185.28;;;23.77;40.47
60646;BME280;46462;32.608;-117.032;2023-01-31T01:33:21;99185.38;;;23.74;40.29
60646;BME280;46462;32.608;-117.032;2023-01-31T01:35:51;99189.32;;;23.70;40.34
60646;BME280;46462;32.608;-117.032;2023-01-31T01:38:22;99189.36;;;23.65;40.49
60646;BME280;46462;32.608;-117.032;2023-01-31T01:40:53;99193.22;;;23.59;40.52
60646;BME280;46462;32.608;-117.032;2023-01-31T01:45:54;99192.90;;;23.53;40.59
60646;BME280;46462;32.608;-117.032;2023-01-31T01:48:26;99195.57;;;23.52;40.63
60646;BME280;46462;32.608;-117.032;2023-01-31T01:50:57;99198.35;;;23.47;40.71
60646;BME280;46462;32.608;-117.032;2023-01-31T01:53:28;99198.21;;;23.44;40.71
60646;BME280;46462;32.608;-117.032;2023-01-31T01:56:03;99203.25;;;23.41;40.72
60646;BME280;46462;32.608;-117.032;2023-01-31T01:58:31;99201.83;;;23.37;40.77
60646;BME280;46462;32.608;-117.032;2023-01-31T02:00:59;99194.30;;;23.36;40.72
60646;BME280;46462;32.608;-117.032;2023-01-31T02:03:29;99191.95;;;23.37;40.69
60646;BME280;46462;32.608;-117.032;2023-01-31T02:06:02;99184.63;;;23.30;40.78
60646;BME280;46462;32.608;-117.032;2023-01-31T02:08:33;99184.63;;;23.26;40.82
60646;BME280;46462;32.608;-117.032;2023-01-31T02:11:07;99178.16;;;23.24;40.75
60646;BME280;46462;32.608;-117.032;2023-01-31T02:13:33;99176.14;;;23.20;40.87
60646;BME280;46462;32.608;-117.032;2023-01-31T02:16:04;99173.76;;;23.19;40.80
60646;BME280;46462;32.608;-117.032;2023-01-31T02:18:34;99170.80;;;23.14;40.88
60646;BME280;46462;32.608;-117.032;2023-01-31T02:33:42;99169.47;;;23.10;40.73
60646;BME280;46462;32.608;-117.032;2023-01-31T02:36:17;99166.10;;;23.09;40.74
60646;BME280;46462;32.608;-117.032;2023-01-31T02:38:50;99164.07;;;23.05;40.79
60646;BME280;46462;32.608;-117.032;2023-01-31T02:41:16;99165.69;;;23.07;40.71
60646;BME280;46462;32.608;-117.032;2023-01-31T02:43:48;99166.91;;;23.01;40.74
60646;BME280;46462;32.608;-117.032;2023-01-31T02:46:15;99176.42;;;22.98;40.83
60646;BME280;46462;32.608;-117.032;2023-01-31T02:48:51;99180.10;;;22.98;40.81
60646;BME280;46462;32.608;-117.032;2023-01-31T02:51:14;99183.17;;;22.96;40.80
60646;BME280;46462;32.608;-117.032;2023-01-31T02:53:46;99182.28;;;22.98;40.60
60646;BME280;46462;32.608;-117.032;2023-01-31T02:56:18;99186.98;;;22.97;40.70
60646;BME280;46462;32.608;-117.032;2023-01-31T02:58:49;99187.68;;;22.96;40.62
60646;BME280;46462;32.608;-117.032;2023-01-31T03:01:20;99187.68;;;22.95;40.64
60646;BME280;46462;32.608;-117.032;2023-01-31T03:03:46;99190.82;;;22.90;40.66
60646;BME280;46462;32.608;-117.032;2023-01-31T03:08:51;99196.26;;;22.83;40.69
60646;BME280;46462;32.608;-117.032;2023-01-31T03:11:19;99194.69;;;22.81;40.68
60646;BME280;46462;32.608;-117.032;2023-01-31T03:13:55;99195.09;;;22.69;40.83
60646;BME280;46462;32.608;-117.032;2023-01-31T03:16:26;99195.23;;;22.65;40.84
60646;BME280;46462;32.608;-117.032;2023-01-31T03:18:58;99201.28;;;22.55;41.09
60646;BME280;46462;32.608;-117.032;2023-01-31T03:21:26;99202.67;;;22.61;40.91
60646;BME280;46462;32.608;-117.032;2023-01-31T03:23:53;99206.07;;;22.61;40.81
60646;BME280;46462;32.608;-117.032;2023-01-31T03:26:24;99206.14;;;22.57;40.84
60646;BME280;46462;32.608;-117.032;2023-01-31T03:28:54;99213.82;;;22.43;41.24
60646;BME280;46462;32.608;-117.032;2023-01-31T03:31:27;99218.28;;;22.39;41.28
60646;BME280;46462;32.608;-117.032;2023-01-31T03:33:58;99216.35;;;22.23;41.74
60646;BME280;46462;32.608;-117.032;2023-01-31T03:36:30;99216.69;;;22.16;41.78
60646;BME280;46462;32.608;-117.032;2023-01-31T03:39:05;99223.86;;;22.17;41.72
60646;BME280;46462;32.608;-117.032;2023-01-31T03:41:32;99228.29;;;22.06;41.99
60646;BME280;46462;32.608;-117.032;2023-01-31T03:44:02;99230.26;;;22.01;42.05
60646;BME280;46462;32.608;-117.032;2023-01-31T03:46:34;99232.44;;;22.04;41.92
60646;BME280;46462;32.608;-117.032;2023-01-31T03:49:03;99228.78;;;21.96;42.21
60646;BME280;46462;32.608;-117.032;2023-01-31T03:51:31;99229.70;;;21.86;42.52
60646;BME280;46462;32.608;-117.032;2023-01-31T03:54:04;99229.12;;;21.78;42.62
60646;BME280;46462;32.608;-117.032;2023-01-31T03:56:35;99227.02;;;21.81;42.50
60646;BME280;46462;32.608;-117.032;2023-01-31T03:59:07;99226.08;;;21.73;42.68
60646;BME280;46462;32.608;-117.032;2023-01-31T04:01:36;99224.72;;;21.70;42.85
60646;BME280;46462;32.608;-117.032;2023-01-31T04:04:08;99226.17;;;21.61;43.14
60646;BME280;46462;32.608;-117.032;2023-01-31T04:06:34;99226.91;;;21.68;42.67
60646;BME280;46462;32.608;-117.032;2023-01-31T04:09:05;99233.58;;;21.68;42.63
60646;BME280;46462;32.608;-117.032;2023-01-31T04:11:38;99233.89;;;21.65;42.61
60646;BME280;46462;32.608;-117.032;2023-01-31T04:14:07;99238.43;;;21.54;42.90
60646;BME280;46462;32.608;-117.032;2023-01-31T04:16:38;99242.66;;;21.43;43.25
60646;BME280;46462;32.608;-117.032;2023-01-31T04:19:08;99247.49;;;21.42;43.19
60646;BME280;46462;32.608;-117.032;2023-01-31T04:21:39;99246.84;;;21.36;43.48
60646;BME280;46462;32.608;-117.032;2023-01-31T04:24:10;99249.33;;;21.27;43.38
60646;BME280;46462;32.608;-117.032;2023-01-31T04:26:40;99251.27;;;21.37;43.18
60646;BME280;46462;32.608;-117.032;2023-01-31T04:29:11;99251.81;;;21.30;43.16
60646;BME280;46462;32.608;-117.032;2023-01-31T04:31:42;99255.45;;;21.28;43.38
60646;BME280;46462;32.608;-117.032;2023-01-31T04:34:13;99259.68;;;21.20;43.46
60646;BME280;46462;32.608;-117.032;2023-01-31T04:36:43;99260.73;;;21.19;43.43
60646;BME280;46462;32.608;-117.032;2023-01-31T04:39:14;99258.51;;;21.13;43.68
60646;BME280;46462;32.608;-117.032;2023-01-31T04:41:45;99261.18;;;21.21;43.45
60646;BME280;46462;32.608;-117.032;2023-01-31T04:44:16;99260.91;;;21.14;43.81
60646;BME280;46462;32.608;-117.032;2023-01-31T04:46:47;99267.36;;;21.13;43.57
60646;BME280;46462;32.608;-117.032;2023-01-31T04:49:17;99269.40;;;21.06;43.82
60646;BME280;46462;32.608;-117.032;2023-01-31T04:51:48;99267.63;;;21.20;43.36
60646;BME280;46462;32.608;-117.032;2023-01-31T04:54:19;99269.25;;;21.15;43.42
60646;BME280;46462;32.608;-117.032;2023-01-31T04:56:49;99267.25;;;21.16;43.43
60646;BME280;46462;32.608;-117.032;2023-01-31T04:59:20;99264.98;;;21.02;43.69
60646;BME280;46462;32.608;-117.032;2023-01-31T05:01:51;99264.80;;;21.04;43.59
60646;BME280;46462;32.608;-117.032;2023-01-31T05:04:22;99263.93;;;20.93;44.08
60646;BME280;46462;32.608;-117.032;2023-01-31T05:06:52;99263.53;;;21.00;43.82
60646;BME280;46462;32.608;-117.032;2023-01-31T05:09:23;99267.89;;;20.92;43.75
60646;BME280;46462;32.608;-117.032;2023-01-31T05:11:54;99269.74;;;20.90;43.93
60646;BME280;46462;32.608;-117.032;2023-01-31T05:14:24;99273.81;;;20.93;43.61
60646;BME280;46462;32.608;-117.032;2023-01-31T05:16:55;99277.49;;;20.90;43.91
60646;BME280;46462;32.608;-117.032;2023-01-31T05:19:26;99277.71;;;20.86;43.99
60646;BME280;46462;32.608;-117.032;2023-01-31T05:21:56;99278.68;;;20.81;44.18
60646;BME280;46462;32.608;-117.032;2023-01-31T05:24:28;99277.94;;;20.85;44.09
60646;BME280;46462;32.608;-117.032;2023-01-31T05:26:59;99276.73;;;20.89;43.81
60646;BME280;46462;32.608;-117.032;2023-01-31T05:29:30;99276.39;;;20.90;43.63
60646;BME280;46462;32.608;-117.032;2023-01-31T05:32:00;99282.78;;;20.96;43.58
60646;BME280;46462;32.608;-117.032;2023-01-31T05:34:30;99290.76;;;20.86;43.79
60646;BME280;46462;32.608;-117.032;2023-01-31T05:37:01;99293.48;;;20.80;43.88
60646;BME280;46462;32.608;-117.032;2023-01-31T05:39:32;99292.62;;;20.77;43.94
60646;BME280;46462;32.608;-117.032;2023-01-31T05:42:02;99296.90;;;20.84;44.03
60646;BME280;46462;32.608;-117.032;2023-01-31T05:44:33;99295.42;;;20.76;44.00
60646;BME280;46462;32.608;-117.032;2023-01-31T05:47:04;99289.51;;;20.65;44.18
60646;BME280;46462;32.608;-117.032;2023-01-31T05:49:35;99290.99;;;20.71;44.05
60646;BME280;46462;32.608;-117.032;2023-01-31T05:52:05;99298.49;;;20.74;43.93
60646;BME280;46462;32.608;-117.032;2023-01-31T05:54:36;99299.27;;;20.76;43.92
60646;BME280;46462;32.608;-117.032;2023-01-31T05:57:07;99298.51;;;20.69;44.04
60646;BME280;46462;32.608;-117.032;2023-01-31T05:59:37;99302.81;;;20.64;44.06
60646;BME280;46462;32.608;-117.032;2023-01-31T06:02:09;99307.13;;;20.56;44.42
60646;BME280;46462;32.608;-117.032;2023-01-31T06:04:39;99303.80;;;20.57;44.28
60646;BME280;46462;32.608;-117.032;2023-01-31T06:07:10;99307.96;;;20.38;44.80
60646;BME280;46462;32.608;-117.032;2023-01-31T06:09:41;99306.18;;;20.44;44.68
60646;BME280;46462;32.608;-117.032;2023-01-31T06:12:12;99301.79;;;20.39;44.74
60646;BME280;46462;32.608;-117.032;2023-01-31T06:14:42;99300.89;;;20.42;44.53
60646;BME280;46462;32.608;-117.032;2023-01-31T06:17:13;99299.59;;;20.32;44.82
60646;BME280;46462;32.608;-117.032;2023-01-31T06:19:43;99298.72;;;20.42;44.56
60646;BME280;46462;32.608;-117.032;2023-01-31T06:22:14;99302.09;;;20.62;44.01
60646;BME280;46462;32.608;-117.032;2023-01-31T06:24:45;99309.38;;;20.32;44.53
60646;BME280;46462;32.608;-117.032;2023-01-31T06:27:15;99316.91;;;20.37;44.51
60646;BME280;46462;32.608;-117.032;2023-01-31T06:29:46;99321.52;;;20.37;44.54
60646;BME280;46462;32.608;-117.032;2023-01-31T06:32:17;99322.85;;;20.09;45.00
60646;BME280;46462;32.608;-117.032;2023-01-31T06:34:48;99330.39;;;20.31;44.44
60646;BME280;46462;32.608;-117.032;2023-01-31T06:39:49;99331.75;;;20.19;44.91
60646;BME280;46462;32.608;-117.032;2023-01-31T06:42:20;99326.37;;;20.26;44.67
60646;BME280;46462;32.608;-117.032;2023-01-31T06:44:51;99322.45;;;20.31;44.44
60646;BME280;46462;32.608;-117.032;2023-01-31T06:47:22;99329.13;;;20.40;44.21
60646;BME280;46462;32.608;-117.032;2023-01-31T06:49:52;99331.38;;;20.20;44.70
60646;BME280;46462;32.608;-117.032;2023-01-31T06:52:23;99327.89;;;20.25;44.56
60646;BME280;46462;32.608;-117.032;2023-01-31T06:54:54;99324.22;;;20.02;45.40
60646;BME280;46462;32.608;-117.032;2023-01-31T06:57:25;99325.67;;;20.02;45.19
60646;BME280;46462;32.608;-117.032;2023-01-31T06:59:55;99330.63;;;19.97;45.21
60646;BME280;46462;32.608;-117.032;2023-01-31T07:02:26;99334.20;;;19.99;45.13
60646;BME280;46462;32.608;-117.032;2023-01-31T07:04:57;99333.28;;;19.84;45.30
60646;BME280;46462;32.608;-117.032;2023-01-31T07:07:28;99332.32;;;19.73;45.92
60646;BME280;46462;32.608;-117.032;2023-01-31T07:09:58;99328.07;;;19.71;45.65
60646;BME280;46462;32.608;-117.032;2023-01-31T07:12:29;99334.78;;;19.86;45.30
60646;BME280;46462;32.608;-117.032;2023-01-31T07:15:00;99339.49;;;19.79;45.67
60646;BME280;46462;32.608;-117.032;2023-01-31T07:17:31;99340.89;;;19.89;45.14
60646;BME280;46462;32.608;-117.032;2023-01-31T07:20:02;99345.36;;;19.86;45.43
60646;BME280;46462;32.608;-117.032;2023-01-31T07:22:32;99346.22;;;20.04;44.94
60646;BME280;46462;32.608;-117.032;2023-01-31T07:25:08;99348.05;;;19.93;45.06
60646;BME280;46462;32.608;-117.032;2023-01-31T07:27:37;99347.35;;;19.98;45.14
60646;BME280;46462;32.608;-117.032;2023-01-31T07:30:08;99344.62;;;19.91;45.17
60646;BME280;46462;32.608;-117.032;2023-01-31T07:32:38;99346.39;;;19.99;45.07
60646;BME280;46462;32.608;-117.032;2023-01-31T07:35:09;99349.42;;;19.91;45.13
60646;BME280;46462;32.608;-117.032;2023-01-31T07:37:39;99350.30;;;19.92;45.14
60646;BME280;46462;32.608;-117.032;2023-01-31T07:40:12;99349.59;;;19.93;45.13
60646;BME280;46462;32.608;-117.032;2023-01-31T07:42:41;99353.65;;;19.87;45.18
60646;BME280;46462;32.608;-117.032;2023-01-31T07:45:14;99353.75;;;19.80;45.50
60646;BME280;46462;32.608;-117.032;2023-01-31T07:47:43;99357.24;;;19.76;45.71
60646;BME280;46462;32.608;-117.032;2023-01-31T07:50:14;99356.16;;;19.69;45.46
60646;BME280;46462;32.608;-117.032;2023-01-31T07:52:44;99358.57;;;19.71;45.58
60646;BME280;46462;32.608;-117.032;2023-01-31T07:55:15;99357.64;;;19.67;45.75
60646;BME280;46462;32.608;-117.032;2023-01-31T07:57:46;99363.81;;;19.65;45.71
60646;BME280;46462;32.608;-117.032;2023-01-31T08:00:17;99360.64;;;19.52;45.77
60646;BME280;46462;32.608;-117.032;2023-01-31T08:02:47;99361.47;;;19.66;45.67
60646;BME280;46462;32.608;-117.032;2023-01-31T08:05:18;99360.63;;;19.52;45.81
60646;BME280;46462;32.608;-117.032;2023-01-31T08:07:49;99362.33;;;19.46;45.84
60646;BME280;46462;32.608;-117.032;2023-01-31T08:10:20;99360.38;;;19.44;46.20
60646;BME280;46462;32.608;-117.032;2023-01-31T08:12:50;99363.33;;;19.38;46.07
60646;BME280;46462;32.608;-117.032;2023-01-31T08:15:21;99362.37;;;19.40;46.08
60646;BME280;46462;32.608;-117.032;2023-01-31T08:17:52;99358.52;;;19.67;45.38
60646;BME280;46462;32.608;-117.032;2023-01-31T08:20:23;99357.13;;;19.51;45.97
60646;BME280;46462;32.608;-117.032;2023-01-31T08:22:55;99362.94;;;19.45;46.17
60646;BME280;46462;32.608;-117.032;2023-01-31T08:25:24;99365.00;;;19.55;45.80
60646;BME280;46462;32.608;-117.032;2023-01-31T08:27:57;99371.42;;;19.47;45.77
60646;BME280;46462;32.608;-117.032;2023-01-31T08:30:26;99377.71;;;19.39;46.11
60646;BME280;46462;32.608;-117.032;2023-01-31T08:32:57;99382.69;;;19.35;46.23
60646;BME280;46462;32.608;-117.032;2023-01-31T08:35:27;99384.35;;;19.44;45.94
60646;BME280;46462;32.608;-117.032;2023-01-31T08:37:58;99387.66;;;19.41;45.98
60646;BME280;46462;32.608;-117.032;2023-01-31T08:40:29;99384.89;;;19.23;46.50
60646;BME280;46462;32.608;-117.032;2023-01-31T08:43:00;99383.45;;;19.31;46.20
60646;BME280;46462;32.608;-117.032;2023-01-31T08:45:31;99379.89;;;19.29;46.11
60646;BME280;46462;32.608;-117.032;2023-01-31T08:48:02;99383.85;;;19.36;45.86
60646;BME280;46462;32.608;-117.032;2023-01-31T08:50:33;99382.59;;;19.55;45.41
60646;BME280;46462;32.608;-117.032;2023-01-31T08:53:04;99382.20;;;19.56;45.37
60646;BME280;46462;32.608;-117.032;2023-01-31T08:55:35;99377.01;;;19.54;45.38
60646;BME280;46462;32.608;-117.032;2023-01-31T08:58:05;99379.82;;;19.32;46.02
60646;BME280;46462;32.608;-117.032;2023-01-31T09:00:35;99380.91;;;19.26;46.06
60646;BME280;46462;32.608;-117.032;2023-01-31T09:03:06;99385.30;;;19.20;46.32
60646;BME280;46462;32.608;-117.032;2023-01-31T09:05:37;99386.49;;;19.08;46.37
60646;BME280;46462;32.608;-117.032;2023-01-31T09:08:08;99386.83;;;19.08;46.47
60646;BME280;46462;32.608;-117.032;2023-01-31T09:10:38;99384.91;;;19.11;46.22
60646;BME280;46462;32.608;-117.032;2023-01-31T09:13:09;99385.45;;;19.38;45.69
60646;BME280;46462;32.608;-117.032;2023-01-31T09:15:40;99389.81;;;19.32;45.93
60646;BME280;46462;32.608;-117.032;2023-01-31T09:18:11;99380.28;;;19.46;45.51
60646;BME280;46462;32.608;-117.032;2023-01-31T09:20:42;99382.48;;;19.30;45.76
60646;BME280;46462;32.608;-117.032;2023-01-31T09:23:12;99383.40;;;19.59;45.00
60646;BME280;46462;32.608;-117.032;2023-01-31T09:25:43;99387.45;;;19.33;45.75
60646;BME280;46462;32.608;-117.032;2023-01-31T09:28:14;99385.78;;;19.10;46.35
60646;BME280;46462;32.608;-117.032;2023-01-31T09:30:45;99386.47;;;18.89;46.80
60646;BME280;46462;32.608;-117.032;2023-01-31T09:33:16;99387.68;;;18.94;46.62
60646;BME280;46462;32.608;-117.032;2023-01-31T09:35:55;99386.58;;;18.90;46.76
60646;BME280;46462;32.608;-117.032;2023-01-31T09:38:17;99388.95;;;18.89;46.90
60646;BME280;46462;32.608;-117.032;2023-01-31T09:40:48;99397.80;;;18.97;46.42
60646;BME280;46462;32.608;-117.032;2023-01-31T09:43:21;99400.24;;;19.36;45.49
60646;BME280;46462;32.608;-117.032;2023-01-31T09:45:50;99400.93;;;19.38;45.35
60646;BME280;46462;32.608;-117.032;2023-01-31T09:48:23;99406.02;;;19.45;45.10
60646;BME280;46462;32.608;-117.032;2023-01-31T09:50:53;99404.69;;;19.55;44.90
60646;BME280;46462;32.608;-117.032;2023-01-31T09:53:24;99411.53;;;19.39;45.09
60646;BME280;46462;32.608;-117.032;2023-01-31T09:56:02;99407.66;;;19.47;44.87
60646;BME280;46462;32.608;-117.032;2023-01-31T09:58:30;99401.91;;;19.67;44.34
60646;BME280;46462;32.608;-117.032;2023-01-31T10:01:00;99406.44;;;19.73;44.18
60646;BME280;46462;32.608;-117.032;2023-01-31T10:03:36;99406.67;;;19.69;44.22
60646;BME280;46462;32.608;-117.032;2023-01-31T10:06:01;99409.37;;;19.60;44.37
60646;BME280;46462;32.608;-117.032;2023-01-31T10:08:37;99408.91;;;19.40;44.83
60646;BME280;46462;32.608;-117.032;2023-01-31T10:11:00;99404.56;;;19.55;44.53
60646;BME280;46462;32.608;-117.032;2023-01-31T10:13:32;99399.79;;;19.68;44.16
60646;BME280;46462;32.608;-117.032;2023-01-31T10:16:04;99409.24;;;19.57;44.44
60646;BME280;46462;32.608;-117.032;2023-01-31T10:18:32;99407.11;;;19.56;44.45
60646;BME280;46462;32.608;-117.032;2023-01-31T10:21:05;99410.24;;;19.39;44.73
60646;BME280;46462;32.608;-117.032;2023-01-31T10:23:35;99414.79;;;19.47;44.63
60646;BME280;46462;32.608;-117.032;2023-01-31T10:26:04;99427.16;;;19.43;44.73
60646;BME280;46462;32.608;-117.032;2023-01-31T10:28:37;99431.85;;;19.40;44.89
60646;BME280;46462;32.608;-117.032;2023-01-31T10:31:09;99432.56;;;19.42;44.90
60646;BME280;46462;32.608;-117.032;2023-01-31T10:33:41;99438.58;;;19.39;44.73
60646;BME280;46462;32.608;-117.032;2023-01-31T10:36:12;99442.06;;;19.33;44.86
60646;BME280;46462;32.608;-117.032;2023-01-31T10:38:39;99441.43;;;19.41;44.77
60646;BME280;46462;32.608;-117.032;2023-01-31T10:41:12;99440.85;;;19.41;44.80
60646;BME280;46462;32.608;-117.032;2023-01-31T10:43:41;99435.86;;;19.43;44.58
60646;BME280;46462;32.608;-117.032;2023-01-31T10:46:10;99445.46;;;19.52;44.40
60646;BME280;46462;32.608;-117.032;2023-01-31T10:48:42;99441.99;;;19.42;44.66
60646;BME280;46462;32.608;-117.032;2023-01-31T10:51:19;99441.68;;;19.20;45.35
60646;BME280;46462;32.608;-117.032;2023-01-31T10:53:49;99439.22;;;19.38;44.67
60646;BME280;46462;32.608;-117.032;2023-01-31T10:56:16;99433.12;;;19.39;44.71
60646;BME280;46462;32.608;-117.032;2023-01-31T10:58:42;99426.42;;;19.10;45.76
60646;BME280;46462;32.608;-117.032;2023-01-31T11:01:13;99422.88;;;19.26;45.06
60646;BME280;46462;32.608;-117.032;2023-01-31T11:03:50;99425.33;;;19.09;45.34
60646;BME280;46462;32.608;-117.032;2023-01-31T11:06:15;99422.13;;;19.15;45.47
60646;BME280;46462;32.608;-117.032;2023-01-31T11:08:48;99420.34;;;19.34;44.92
60646;BME280;46462;32.608;-117.032;2023-01-31T11:11:20;99419.02;;;18.95;45.98
60646;BME280;46462;32.608;-117.032;2023-01-31T11:13:55;99416.69;;;18.94;45.67
60646;BME280;46462;32.608;-117.032;2023-01-31T11:16:18;99418.80;;;18.91;45.81
60646;BME280;46462;32.608;-117.032;2023-01-31T11:18:50;99421.41;;;18.72;46.32
60646;BME280;46462;32.608;-117.032;2023-01-31T11:21:22;99426.61;;;18.47;46.93
60646;BME280;46462;32.608;-117.032;2023-01-31T11:23:51;99427.18;;;18.43;47.24
60646;BME280;46462;32.608;-117.032;2023-01-31T11:26:26;99425.46;;;18.75;46.16
60646;BME280;46462;32.608;-117.032;2023-01-31T11:28:52;99421.68;;;18.84;46.08
60646;BME280;46462;32.608;-117.032;2023-01-31T11:31:28;99416.77;;;18.79;46.11
60646;BME280;46462;32.608;-117.032;2023-01-31T11:33:58;99416.32;;;18.70;46.38
60646;BME280;46462;32.608;-117.032;2023-01-31T11:36:24;99417.57;;;18.53;46.76
60646;BME280;46462;32.608;-117.032;2023-01-31T11:38:55;99423.87;;;18.59;46.16
60646;BME280;46462;32.608;-117.032;2023-01-31T11:41:31;99425.69;;;18.46;46.77
60646;BME280;46462;32.608;-117.032;2023-01-31T11:46:29;99427.76;;;18.40;47.05
60646;BME280;46462;32.608;-117.032;2023-01-31T11:48:58;99423.53;;;18.52;46.92
60646;BME280;46462;32.608;-117.032;2023-01-31T11:51:30;99423.34;;;18.52;46.96
60646;BME280;46462;32.608;-117.032;2023-01-31T11:54:03;99428.04;;;18.66;46.16
60646;BME280;46462;32.608;-117.032;2023-01-31T11:56:34;99441.64;;;18.46;46.96
60646;BME280;46462;32.608;-117.032;2023-01-31T11:59:03;99452.03;;;18.25;47.45
60646;BME280;46462;32.608;-117.032;2023-01-31T12:01:35;99457.74;;;18.31;47.26
60646;BME280;46462;32.608;-117.032;2023-01-31T12:04:05;99460.33;;;18.39;46.84
60646;BME280;46462;32.608;-117.032;2023-01-31T12:06:36;99470.73;;;18.61;46.20
60646;BME280;46462;32.608;-117.032;2023-01-31T12:11:36;99480.48;;;18.72;45.69
60646;BME280;46462;32.608;-117.032;2023-01-31T12:14:13;99478.51;;;18.90;45.49
60646;BME280;46462;32.608;-117.032;2023-01-31T12:16:37;99480.36;;;18.52;46.60
60646;BME280;46462;32.608;-117.032;2023-01-31T12:19:18;99484.93;;;18.72;45.79
60646;BME280;46462;32.608;-117.032;2023-01-31T12:21:50;99489.84;;;18.59;46.29
60646;BME280;46462;32.608;-117.032;2023-01-31T12:24:20;99490.79;;;18.43;46.65
60646;BME280;46462;32.608;-117.032;2023-01-31T12:26:46;99487.39;;;18.69;45.87
60646;BME280;46462;32.608;-117.032;2023-01-31T12:29:25;99487.30;;;18.77;45.68
60646;BME280;46462;32.608;-117.032;2023-01-31T12:31:53;99480.00;;;18.46;46.33
60646;BME280;46462;32.608;-117.032;2023-01-31T12:34:23;99486.26;;;18.50;46.43
60646;BME280;46462;32.608;-117.032;2023-01-31T12:36:54;99492.41;;;18.41;46.69
60646;BME280;46462;32.608;-117.032;2023-01-31T12:39:33;99495.46;;;18.28;46.70
60646;BME280;46462;32.608;-117.032;2023-01-31T12:41:56;99496.37;;;18.32;46.79
60646;BME280;46462;32.608;-117.032;2023-01-31T12:44:27;99497.07;;;18.23;47.21
60646;BME280;46462;32.608;-117.032;2023-01-31T12:46:59;99500.66;;;18.12;47.36
60646;BME280;46462;32.608;-117.032;2023-01-31T12:49:25;99498.79;;;18.11;47.42
60646;BME280;46462;32.608;-117.032;2023-01-31T12:51:55;99499.82;;;18.14;47.47
60646;BME280;46462;32.608;-117.032;2023-01-31T12:57:03;99504.16;;;18.19;47.07
60646;BME280;46462;32.608;-117.032;2023-01-31T12:59:33;99505.43;;;18.03;47.39
60646;BME280;46462;32.608;-117.032;2023-01-31T13:01:56;99506.78;;;18.13;47.19
60646;BME280;46462;32.608;-117.032;2023-01-31T13:04:32;99503.88;;;18.12;47.04
60646;BME280;46462;32.608;-117.032;2023-01-31T13:06:57;99505.05;;;18.23;46.98
60646;BME280;46462;32.608;-117.032;2023-01-31T13:09:27;99505.02;;;18.23;46.90
60646;BME280;46462;32.608;-117.032;2023-01-31T13:11:59;99509.91;;;18.07;47.38
60646;BME280;46462;32.608;-117.032;2023-01-31T13:14:30;99511.06;;;18.03;47.63